sensor_id;sensor_type;location;lat;lon;timestamp;pressure;altitude;pressure_sealevel;temperature
76009;BMP280;64700;52.130;21.270;2023-04-08T00:01:37;101146.88;;;19.85
76009;BMP280;64700;52.130;21.270;2023-04-08T00:04:02;101150.81;;;19.84
76009;BMP280;64700;52.130;21.270;2023-04-08T00:06:27;101145.69;;;19.86
76009;BMP280;64700;52.130;21.270;2023-04-08T00:08:52;101154.31;;;19.84
76009;BMP280;64700;52.130;21.270;2023-04-08T00:11:18;101157.88;;;19.81
76009;BMP280;64700;52.130;21.270;2023-04-08T00:13:43;101154.31;;;19.84
76009;BMP280;64700;52.130;21.270;2023-04-08T00:16:08;101161.22;;;19.85
76009;BMP280;64700;52.130;21.270;2023-04-08T00:18:33;101156.69;;;19.82
76009;BMP280;64700;52.130;21.270;2023-04-08T00:20:58;101160.47;;;19.85
76009;BMP280;64700;52.130;21.270;2023-04-08T00:23:24;101157.88;;;19.81
76009;BMP280;64700;52.130;21.270;2023-04-08T00:25:49;101160.16;;;19.83
76009;BMP280;64700;52.130;21.270;2023-04-08T00:28:15;101149.31;;;19.83
76009;BMP280;64700;52.130;21.270;2023-04-08T00:30:40;101156.25;;;19.84
76009;BMP280;64700;52.130;21.270;2023-04-08T00:33:05;101159.84;;;19.81
76009;BMP280;64700;52.130;21.270;2023-04-08T00:35:30;101152.78;;;19.83
76009;BMP280;64700;52.130;21.270;2023-04-08T00:37:57;101158.34;;;19.80
76009;BMP280;64700;52.130;21.270;2023-04-08T00:40:22;101159.41;;;19.82
76009;BMP280;64700;52.130;21.270;2023-04-08T00:42:47;101159.41;;;19.82
76009;BMP280;64700;52.130;21.270;2023-04-08T00:45:12;101167.88;;;19.84
76009;BMP280;64700;52.130;21.270;2023-04-08T00:47:38;101167.88;;;19.84
76009;BMP280;64700;52.130;21.270;2023-04-08T00:50:03;101163.31;;;19.81
76009;BMP280;64700;52.130;21.270;2023-04-08T00:52:31;101167.97;;;19.81
76009;BMP280;64700;52.130;21.270;2023-04-08T00:54:56;101181.69;;;19.77
76009;BMP280;64700;52.130;21.270;2023-04-08T00:57:21;101172.66;;;19.80
76009;BMP280;64700;52.130;21.270;2023-04-08T00:59:46;101170.81;;;19.77
76009;BMP280;64700;52.130;21.270;2023-04-08T01:02:21;101163.00;;;19.79
76009;BMP280;64700;52.130;21.270;2023-04-08T01:07:17;101173.41;;;19.81
76009;BMP280;64700;52.130;21.270;2023-04-08T01:09:45;101173.41;;;19.81
76009;BMP280;64700;52.130;21.270;2023-04-08T01:12:11;101183.97;;;19.79
76009;BMP280;64700;52.130;21.270;2023-04-08T01:14:38;101173.09;;;19.79
76009;BMP280;64700;52.130;21.270;2023-04-08T01:17:06;101174.28;;;19.78
76009;BMP280;64700;52.130;21.270;2023-04-08T01:19:33;101171.28;;;19.76
76009;BMP280;64700;52.130;21.270;2023-04-08T01:22:04;101175.47;;;19.77
76009;BMP280;64700;52.130;21.270;2023-04-08T01:24:35;101175.19;;;19.75
76009;BMP280;64700;52.130;21.270;2023-04-08T01:27:00;101174.81;;;19.73
76009;BMP280;64700;52.130;21.270;2023-04-08T01:29:26;101173.63;;;19.74
76009;BMP280;64700;52.130;21.270;2023-04-08T01:31:52;101173.25;;;19.75
76009;BMP280;64700;52.130;21.270;2023-04-08T01:34:18;101169.75;;;19.75
76009;BMP280;64700;52.130;21.270;2023-04-08T01:36:44;101175.47;;;19.77
76009;BMP280;64700;52.130;21.270;2023-04-08T01:39:10;101180.16;;;19.76
76009;BMP280;64700;52.130;21.270;2023-04-08T01:41:36;101180.16;;;19.76
76009;BMP280;64700;52.130;21.270;2023-04-08T01:44:01;101172.25;;;19.69
76009;BMP280;64700;52.130;21.270;2023-04-08T01:46:27;101190.81;;;19.71
76009;BMP280;64700;52.130;21.270;2023-04-08T01:48:53;101186.91;;;19.72
76009;BMP280;64700;52.130;21.270;2023-04-08T01:51:19;101191.09;;;19.73
76009;BMP280;64700;52.130;21.270;2023-04-08T01:53:45;101198.94;;;19.71
76009;BMP280;64700;52.130;21.270;2023-04-08T01:56:11;101200.91;;;19.70
76009;BMP280;64700;52.130;21.270;2023-04-08T01:58:37;101199.38;;;19.69
76009;BMP280;64700;52.130;21.270;2023-04-08T02:01:04;101209.94;;;19.67
76009;BMP280;64700;52.130;21.270;2023-04-08T02:03:30;101202.41;;;19.71
76009;BMP280;64700;52.130;21.270;2023-04-08T02:05:55;101209.03;;;19.70
76009;BMP280;64700;52.130;21.270;2023-04-08T02:08:21;101204.38;;;19.71
76009;BMP280;64700;52.130;21.270;2023-04-08T02:10:46;101205.25;;;19.67
76009;BMP280;64700;52.130;21.270;2023-04-08T02:13:11;101222.28;;;19.68
76009;BMP280;64700;52.130;21.270;2023-04-08T02:15:37;101216.09;;;19.67
76009;BMP280;64700;52.130;21.270;2023-04-08T02:18:04;101217.63;;;19.68
76009;BMP280;64700;52.130;21.270;2023-04-08T02:20:40;101217.75;;;19.65
76009;BMP280;64700;52.130;21.270;2023-04-08T02:25:33;101217.75;;;19.65
76009;BMP280;64700;52.130;21.270;2023-04-08T02:27:59;101216.97;;;19.64
76009;BMP280;64700;52.130;21.270;2023-04-08T02:30:25;101222.53;;;19.61
76009;BMP280;64700;52.130;21.270;2023-04-08T02:32:52;101218.63;;;19.62
76009;BMP280;64700;52.130;21.270;2023-04-08T02:35:18;101227.84;;;19.64
76009;BMP280;64700;52.130;21.270;2023-04-08T02:37:45;101227.97;;;19.61
76009;BMP280;64700;52.130;21.270;2023-04-08T02:40:25;101232.50;;;19.64
76009;BMP280;64700;52.130;21.270;2023-04-08T02:42:50;101229.91;;;19.60
76009;BMP280;64700;52.130;21.270;2023-04-08T02:45:15;101227.84;;;19.64
76009;BMP280;64700;52.130;21.270;2023-04-08T02:47:41;101233.69;;;19.63
76009;BMP280;64700;52.130;21.270;2023-04-08T02:50:06;101234.91;;;19.62
76009;BMP280;64700;52.130;21.270;2023-04-08T02:52:31;101244.34;;;19.57
76009;BMP280;64700;52.130;21.270;2023-04-08T02:54:56;101248.91;;;19.60
76009;BMP280;64700;52.130;21.270;2023-04-08T02:57:21;101256.03;;;19.54
76009;BMP280;64700;52.130;21.270;2023-04-08T02:59:47;101247.81;;;19.58
76009;BMP280;64700;52.130;21.270;2023-04-08T03:02:12;101252.81;;;19.59
76009;BMP280;64700;52.130;21.270;2023-04-08T03:04:37;101259.22;;;19.53
76009;BMP280;64700;52.130;21.270;2023-04-08T03:07:02;101255.31;;;19.54
76009;BMP280;64700;52.130;21.270;2023-04-08T03:09:27;101252.91;;;19.56
76009;BMP280;64700;52.130;21.270;2023-04-08T03:11:53;101259.41;;;19.58
76009;BMP280;64700;52.130;21.270;2023-04-08T03:14:19;101255.72;;;19.52
76009;BMP280;64700;52.130;21.270;2023-04-08T03:16:44;101256.50;;;19.53
76009;BMP280;64700;52.130;21.270;2023-04-08T03:19:09;101256.03;;;19.54
76009;BMP280;64700;52.130;21.270;2023-04-08T03:21:34;101264.19;;;19.54
76009;BMP280;64700;52.130;21.270;2023-04-08T03:24:00;101263.09;;;19.52
76009;BMP280;64700;52.130;21.270;2023-04-08T03:26:25;101262.69;;;19.53
76009;BMP280;64700;52.130;21.270;2023-04-08T03:28:51;101263.88;;;19.52
76009;BMP280;64700;52.130;21.270;2023-04-08T03:31:16;101252.03;;;19.46
76009;BMP280;64700;52.130;21.270;2023-04-08T03:33:41;101259.41;;;19.46
76009;BMP280;64700;52.130;21.270;2023-04-08T03:36:06;101254.75;;;19.46
76009;BMP280;64700;52.130;21.270;2023-04-08T03:38:32;101253.25;;;19.45
76009;BMP280;64700;52.130;21.270;2023-04-08T03:40:57;101264.00;;;19.49
76009;BMP280;64700;52.130;21.270;2023-04-08T03:43:22;101273.00;;;19.46
76009;BMP280;64700;52.130;21.270;2023-04-08T03:45:49;101271.69;;;19.50
76009;BMP280;64700;52.130;21.270;2023-04-08T03:48:14;101269.84;;;19.47
76009;BMP280;64700;52.130;21.270;2023-04-08T03:50:40;101277.09;;;19.50
76009;BMP280;64700;52.130;21.270;2023-04-08T03:53:05;101274.38;;;19.50
76009;BMP280;64700;52.130;21.270;2023-04-08T03:55:30;101278.31;;;19.49
76009;BMP280;64700;52.130;21.270;2023-04-08T03:57:55;101275.69;;;19.46
76009;BMP280;64700;52.130;21.270;2023-04-08T04:00:20;101282.66;;;19.47
76009;BMP280;64700;52.130;21.270;2023-04-08T04:02:45;101283.84;;;19.46
76009;BMP280;64700;52.130;21.270;2023-04-08T04:05:11;101295.03;;;19.48
76009;BMP280;64700;52.130;21.270;2023-04-08T04:07:36;101297.63;;;19.51
76009;BMP280;64700;52.130;21.270;2023-04-08T04:10:01;101293.19;;;19.45
76009;BMP280;64700;52.130;21.270;2023-04-08T04:12:26;101305.13;;;19.47
76009;BMP280;64700;52.130;21.270;2023-04-08T04:14:51;101300.97;;;19.43
76009;BMP280;64700;52.130;21.270;2023-04-08T04:17:17;101308.34;;;19.42
76009;BMP280;64700;52.130;21.270;2023-04-08T04:19:42;101309.09;;;19.43
76009;BMP280;64700;52.130;21.270;2023-04-08T04:22:08;101315.72;;;19.42
76009;BMP280;64700;52.130;21.270;2023-04-08T04:24:33;101312.69;;;19.40
76009;BMP280;64700;52.130;21.270;2023-04-08T04:26:59;101320.06;;;19.39
76009;BMP280;64700;52.130;21.270;2023-04-08T04:29:24;101322.34;;;19.41
76009;BMP280;64700;52.130;21.270;2023-04-08T04:31:49;101315.28;;;19.43
76009;BMP280;64700;52.130;21.270;2023-04-08T04:34:14;101314.63;;;19.39
76009;BMP280;64700;52.130;21.270;2023-04-08T04:36:39;101322.34;;;19.41
76009;BMP280;64700;52.130;21.270;2023-04-08T04:39:05;101324.31;;;19.40
76009;BMP280;64700;52.130;21.270;2023-04-08T04:41:30;101327.09;;;19.37
76009;BMP280;64700;52.130;21.270;2023-04-08T04:43:55;101332.97;;;19.35
76009;BMP280;64700;52.130;21.270;2023-04-08T04:46:20;101331.22;;;19.41
76009;BMP280;64700;52.130;21.270;2023-04-08T04:48:46;101328.09;;;19.43
76009;BMP280;64700;52.130;21.270;2023-04-08T04:51:11;101323.19;;;19.38
76009;BMP280;64700;52.130;21.270;2023-04-08T04:53:36;101328.75;;;19.34
76009;BMP280;64700;52.130;21.270;2023-04-08T04:56:01;101330.91;;;19.39
76009;BMP280;64700;52.130;21.270;2023-04-08T04:58:26;101330.91;;;19.39
76009;BMP280;64700;52.130;21.270;2023-04-08T05:00:52;101329.72;;;19.40
76009;BMP280;64700;52.130;21.270;2023-04-08T05:03:17;101341.34;;;19.41
76009;BMP280;64700;52.130;21.270;2023-04-08T05:05:42;101345.25;;;19.40
76009;BMP280;64700;52.130;21.270;2023-04-08T05:08:07;101348.25;;;19.42
76009;BMP280;64700;52.130;21.270;2023-04-08T05:10:32;101342.06;;;19.41
76009;BMP280;64700;52.130;21.270;2023-04-08T05:12:58;101337.66;;;19.35
76009;BMP280;64700;52.130;21.270;2023-04-08T05:15:23;101351.97;;;19.35
76009;BMP280;64700;52.130;21.270;2023-04-08T05:17:48;101352.72;;;19.36
76009;BMP280;64700;52.130;21.270;2023-04-08T05:20:13;101347.31;;;19.36
76009;BMP280;64700;52.130;21.270;2023-04-08T05:22:38;101348.50;;;19.35
76009;BMP280;64700;52.130;21.270;2023-04-08T05:25:04;101353.16;;;19.34
76009;BMP280;64700;52.130;21.270;2023-04-08T05:27:30;101351.22;;;19.35
76009;BMP280;64700;52.130;21.270;2023-04-08T05:29:55;101345.44;;;19.33
76009;BMP280;64700;52.130;21.270;2023-04-08T05:32:20;101350.09;;;19.32
76009;BMP280;64700;52.130;21.270;2023-04-08T05:34:45;101350.44;;;19.34
76009;BMP280;64700;52.130;21.270;2023-04-08T05:37:10;101356.41;;;19.42
76009;BMP280;64700;52.130;21.270;2023-04-08T05:39:36;101356.19;;;19.36
76009;BMP280;64700;52.130;21.270;2023-04-08T05:42:01;101356.94;;;19.37
76009;BMP280;64700;52.130;21.270;2023-04-08T05:44:26;101361.06;;;19.41
76009;BMP280;64700;52.130;21.270;2023-04-08T05:46:51;101369.66;;;19.40
76009;BMP280;64700;52.130;21.270;2023-04-08T05:49:17;101371.91;;;19.41
76009;BMP280;64700;52.130;21.270;2023-04-08T05:51:42;101365.22;;;19.46
76009;BMP280;64700;52.130;21.270;2023-04-08T05:54:08;101361.41;;;19.43
76009;BMP280;64700;52.130;21.270;2023-04-08T05:56:33;101371.91;;;19.41
76009;BMP280;64700;52.130;21.270;2023-04-08T05:58:58;101368.47;;;19.41
76009;BMP280;64700;52.130;21.270;2023-04-08T06:01:24;101365.06;;;19.37
76009;BMP280;64700;52.130;21.270;2023-04-08T06:03:49;101357.69;;;19.37
76009;BMP280;64700;52.130;21.270;2023-04-08T06:06:16;101371.59;;;19.39
76009;BMP280;64700;52.130;21.270;2023-04-08T06:08:41;101373.44;;;19.42
76009;BMP280;64700;52.130;21.270;2023-04-08T06:11:06;101379.19;;;19.44
76009;BMP280;64700;52.130;21.270;2023-04-08T06:13:32;101376.81;;;19.46
76009;BMP280;64700;52.130;21.270;2023-04-08T06:15:57;101372.94;;;19.47
76009;BMP280;64700;52.130;21.270;2023-04-08T06:18:22;101364.47;;;19.45
76009;BMP280;64700;52.130;21.270;2023-04-08T06:20:47;101373.69;;;19.48
76009;BMP280;64700;52.130;21.270;2023-04-08T06:23:13;101378.78;;;19.46
76009;BMP280;64700;52.130;21.270;2023-04-08T06:25:39;101369.91;;;19.45
76009;BMP280;64700;52.130;21.270;2023-04-08T06:28:04;101376.81;;;19.46
76009;BMP280;64700;52.130;21.270;2023-04-08T06:30:29;101381.41;;;19.49
76009;BMP280;64700;52.130;21.270;2023-04-08T06:32:55;101382.13;;;19.50
76009;BMP280;64700;52.130;21.270;2023-04-08T06:35:20;101384.53;;;19.48
76009;BMP280;64700;52.130;21.270;2023-04-08T06:37:45;101381.06;;;19.47
76009;BMP280;64700;52.130;21.270;2023-04-08T06:40:10;101383.34;;;19.49
76009;BMP280;64700;52.130;21.270;2023-04-08T06:42:36;101379.13;;;19.48
76009;BMP280;64700;52.130;21.270;2023-04-08T06:45:02;101391.16;;;19.47
76009;BMP280;64700;52.130;21.270;2023-04-08T06:47:28;101394.22;;;19.49
76009;BMP280;64700;52.130;21.270;2023-04-08T06:49:53;101387.91;;;19.52
76009;BMP280;64700;52.130;21.270;2023-04-08T06:52:18;101387.13;;;19.51
76009;BMP280;64700;52.130;21.270;2023-04-08T06:54:43;101393.31;;;19.52
76009;BMP280;64700;52.130;21.270;2023-04-08T06:57:08;101384.84;;;19.50
76009;BMP280;64700;52.130;21.270;2023-04-08T06:59:34;101386.81;;;19.49
76009;BMP280;64700;52.130;21.270;2023-04-08T07:01:59;101385.94;;;19.52
76009;BMP280;64700;52.130;21.270;2023-04-08T07:04:24;101380.84;;;19.54
76009;BMP280;64700;52.130;21.270;2023-04-08T07:06:49;101380.53;;;19.52
76009;BMP280;64700;52.130;21.270;2023-04-08T07:09:15;101389.09;;;19.51
76009;BMP280;64700;52.130;21.270;2023-04-08T07:11:40;101381.72;;;19.51
76009;BMP280;64700;52.130;21.270;2023-04-08T07:14:05;101380.19;;;19.50
76009;BMP280;64700;52.130;21.270;2023-04-08T07:16:31;101388.66;;;19.52
76009;BMP280;64700;52.130;21.270;2023-04-08T07:18:56;101396.03;;;19.52
76009;BMP280;64700;52.130;21.270;2023-04-08T07:21:21;101395.69;;;19.50
76009;BMP280;64700;52.130;21.270;2023-04-08T07:23:47;101396.81;;;19.52
76009;BMP280;64700;52.130;21.270;2023-04-08T07:26:12;101399.81;;;19.54
76009;BMP280;64700;52.130;21.270;2023-04-08T07:28:37;101399.09;;;19.54
76009;BMP280;64700;52.130;21.270;2023-04-08T07:31:12;101414.50;;;19.57
76009;BMP280;64700;52.130;21.270;2023-04-08T07:33:38;101404.06;;;19.55
76009;BMP280;64700;52.130;21.270;2023-04-08T07:36:03;101414.50;;;19.57
76009;BMP280;64700;52.130;21.270;2023-04-08T07:38:28;101415.69;;;19.56
76009;BMP280;64700;52.130;21.270;2023-04-08T07:40:53;101405.25;;;19.54
76009;BMP280;64700;52.130;21.270;2023-04-08T07:43:18;101407.22;;;19.54
76009;BMP280;64700;52.130;21.270;2023-04-08T07:45:44;101406.00;;;19.55
76009;BMP280;64700;52.130;21.270;2023-04-08T07:48:09;101411.44;;;19.55
76009;BMP280;64700;52.130;21.270;2023-04-08T07:50:35;101412.22;;;19.55
76009;BMP280;64700;52.130;21.270;2023-04-08T07:53:01;101412.97;;;19.56
76009;BMP280;64700;52.130;21.270;2023-04-08T07:55:26;101406.00;;;19.55
76009;BMP280;64700;52.130;21.270;2023-04-08T07:57:51;101409.50;;;19.55
76009;BMP280;64700;52.130;21.270;2023-04-08T08:00:16;101402.88;;;19.56
76009;BMP280;64700;52.130;21.270;2023-04-08T08:02:45;101402.53;;;19.54
76009;BMP280;64700;52.130;21.270;2023-04-08T08:05:11;101401.81;;;19.54
76009;BMP280;64700;52.130;21.270;2023-04-08T08:07:37;101413.38;;;19.54
76009;BMP280;64700;52.130;21.270;2023-04-08T08:10:02;101401.69;;;19.57
76009;BMP280;64700;52.130;21.270;2023-04-08T08:12:27;101410.69;;;19.54
76009;BMP280;64700;52.130;21.270;2023-04-08T08:14:52;101407.53;;;19.56
76009;BMP280;64700;52.130;21.270;2023-04-08T08:17:19;101408.41;;;19.53
76009;BMP280;64700;52.130;21.270;2023-04-08T08:19:44;101398.63;;;19.55
76009;BMP280;64700;52.130;21.270;2023-04-08T08:22:10;101407.13;;;19.57
76009;BMP280;64700;52.130;21.270;2023-04-08T08:24:35;101407.47;;;19.59
76009;BMP280;64700;52.130;21.270;2023-04-08T08:27:00;101407.78;;;19.61
76009;BMP280;64700;52.130;21.270;2023-04-08T08:29:28;101409.31;;;19.62
76009;BMP280;64700;52.130;21.270;2023-04-08T08:31:53;101405.31;;;19.67
76009;BMP280;64700;52.130;21.270;2023-04-08T08:34:18;101413.00;;;19.68
76009;BMP280;64700;52.130;21.270;2023-04-08T08:36:44;101400.53;;;19.71
76009;BMP280;64700;52.130;21.270;2023-04-08T08:39:09;101403.91;;;19.75
76009;BMP280;64700;52.130;21.270;2023-04-08T08:41:34;101403.03;;;19.78
76009;BMP280;64700;52.130;21.270;2023-04-08T08:44:04;101399.88;;;19.80
76009;BMP280;64700;52.130;21.270;2023-04-08T08:46:29;101399.31;;;19.85
76009;BMP280;64700;52.130;21.270;2023-04-08T08:48:55;101394.97;;;19.87
76009;BMP280;64700;52.130;21.270;2023-04-08T08:51:20;101392.69;;;19.86
76009;BMP280;64700;52.130;21.270;2023-04-08T08:53:45;101404.56;;;19.92
76009;BMP280;64700;52.130;21.270;2023-04-08T08:56:11;101398.38;;;19.91
76009;BMP280;64700;52.130;21.270;2023-04-08T08:58:37;101394.91;;;19.91
76009;BMP280;64700;52.130;21.270;2023-04-08T09:01:03;101404.44;;;19.95
76009;BMP280;64700;52.130;21.270;2023-04-08T09:03:48;101391.50;;;19.99
76009;BMP280;64700;52.130;21.270;2023-04-08T09:06:30;101396.31;;;19.95
76009;BMP280;64700;52.130;21.270;2023-04-08T09:08:55;101405.84;;;20.00
76009;BMP280;64700;52.130;21.270;2023-04-08T09:11:20;101406.91;;;20.02
76009;BMP280;64700;52.130;21.270;2023-04-08T09:13:46;101402.16;;;20.06
76009;BMP280;64700;52.130;21.270;2023-04-08T09:16:12;101406.72;;;20.10
76009;BMP280;64700;52.130;21.270;2023-04-08T09:18:39;101408.22;;;20.11
76009;BMP280;64700;52.130;21.270;2023-04-08T09:21:08;101410.63;;;20.08
76009;BMP280;64700;52.130;21.270;2023-04-08T09:23:37;101417.13;;;20.11
76009;BMP280;64700;52.130;21.270;2023-04-08T09:26:10;101410.09;;;20.14
76009;BMP280;64700;52.130;21.270;2023-04-08T09:28:36;101425.50;;;20.17
76009;BMP280;64700;52.130;21.270;2023-04-08T09:33:42;101409.56;;;20.19
76009;BMP280;64700;52.130;21.270;2023-04-08T09:36:07;101405.53;;;20.23
76009;BMP280;64700;52.130;21.270;2023-04-08T09:38:32;101412.47;;;20.24
76009;BMP280;64700;52.130;21.270;2023-04-08T09:40:57;101410.25;;;20.32
76009;BMP280;64700;52.130;21.270;2023-04-08T09:43:23;101410.19;;;20.35
76009;BMP280;64700;52.130;21.270;2023-04-08T09:45:48;101415.25;;;20.33
76009;BMP280;64700;52.130;21.270;2023-04-08T09:48:17;101415.16;;;20.37
76009;BMP280;64700;52.130;21.270;2023-04-08T09:50:48;101410.38;;;20.41
76009;BMP280;64700;52.130;21.270;2023-04-08T09:53:23;101413.22;;;20.37
76009;BMP280;64700;52.130;21.270;2023-04-08T09:55:52;101401.59;;;20.37
76009;BMP280;64700;52.130;21.270;2023-04-08T09:58:20;101403.31;;;20.43
76009;BMP280;64700;52.130;21.270;2023-04-08T10:00:48;101402.00;;;20.48
76009;BMP280;64700;52.130;21.270;2023-04-08T10:05:41;101395.03;;;20.47
76009;BMP280;64700;52.130;21.270;2023-04-08T10:08:07;101394.28;;;20.46
76009;BMP280;64700;52.130;21.270;2023-04-08T10:10:33;101396.13;;;20.49
76009;BMP280;64700;52.130;21.270;2023-04-08T10:12:59;101397.38;;;20.58
76009;BMP280;64700;52.130;21.270;2023-04-08T10:15:27;101387.91;;;20.62
76009;BMP280;64700;52.130;21.270;2023-04-08T10:17:52;101384.56;;;20.58
76009;BMP280;64700;52.130;21.270;2023-04-08T10:22:58;101386.31;;;20.65
76009;BMP280;64700;52.130;21.270;2023-04-08T10:28:01;101395.66;;;20.64
76009;BMP280;64700;52.130;21.270;2023-04-08T10:32:56;101390.84;;;20.68
76009;BMP280;64700;52.130;21.270;2023-04-08T10:35:46;101398.25;;;20.67
76009;BMP280;64700;52.130;21.270;2023-04-08T10:38:11;101387.91;;;20.62
76009;BMP280;64700;52.130;21.270;2023-04-08T10:40:37;101376.75;;;20.60
76009;BMP280;64700;52.130;21.270;2023-04-08T10:43:03;101374.78;;;20.61
76009;BMP280;64700;52.130;21.270;2023-04-08T10:45:29;101371.75;;;20.59
76009;BMP280;64700;52.130;21.270;2023-04-08T10:47:54;101374.16;;;20.57
76009;BMP280;64700;52.130;21.270;2023-04-08T10:50:20;101361.44;;;20.54
76009;BMP280;64700;52.130;21.270;2023-04-08T10:52:51;101373.63;;;20.49
76009;BMP280;64700;52.130;21.270;2023-04-08T10:55:23;101370.56;;;20.47
76009;BMP280;64700;52.130;21.270;2023-04-08T10:57:52;101366.66;;;20.48
76009;BMP280;64700;52.130;21.270;2023-04-08T11:00:17;101373.44;;;20.43
76009;BMP280;64700;52.130;21.270;2023-04-08T11:02:43;101356.50;;;20.39
76009;BMP280;64700;52.130;21.270;2023-04-08T11:05:08;101361.16;;;20.39
76009;BMP280;64700;52.130;21.270;2023-04-08T11:07:38;101359.22;;;20.39
76009;BMP280;64700;52.130;21.270;2023-04-08T11:10:04;101354.19;;;20.38
76009;BMP280;64700;52.130;21.270;2023-04-08T11:12:30;101360.84;;;20.37
76009;BMP280;64700;52.130;21.270;2023-04-08T11:14:56;101362.78;;;20.36
76009;BMP280;64700;52.130;21.270;2023-04-08T11:17:21;101367.78;;;20.38
76009;BMP280;64700;52.130;21.270;2023-04-08T11:19:46;101361.59;;;20.37
76009;BMP280;64700;52.130;21.270;2023-04-08T11:22:12;101358.44;;;20.39
76009;BMP280;64700;52.130;21.270;2023-04-08T11:24:37;101363.41;;;20.40
76009;BMP280;64700;52.130;21.270;2023-04-08T11:27:03;101357.81;;;20.35
76009;BMP280;64700;52.130;21.270;2023-04-08T11:29:30;101358.66;;;20.32
76009;BMP280;64700;52.130;21.270;2023-04-08T11:31:56;101358.66;;;20.32
76009;BMP280;64700;52.130;21.270;2023-04-08T11:34:22;101353.16;;;20.35
76009;BMP280;64700;52.130;21.270;2023-04-08T11:36:48;101356.63;;;20.36
76009;BMP280;64700;52.130;21.270;2023-04-08T11:39:14;101353.16;;;20.35
76009;BMP280;64700;52.130;21.270;2023-04-08T11:41:39;101344.63;;;20.33
76009;BMP280;64700;52.130;21.270;2023-04-08T11:44:05;101338.03;;;20.34
76009;BMP280;64700;52.130;21.270;2023-04-08T11:46:33;101339.19;;;20.33
76009;BMP280;64700;52.130;21.270;2023-04-08T11:49:05;101338.44;;;20.33
76009;BMP280;64700;52.130;21.270;2023-04-08T11:51:32;101340.31;;;20.36
76009;BMP280;64700;52.130;21.270;2023-04-08T11:53:58;101341.16;;;20.33
76009;BMP280;64700;52.130;21.270;2023-04-08T11:56:24;101343.09;;;20.32
76009;BMP280;64700;52.130;21.270;2023-04-08T11:58:49;101339.63;;;20.32
76009;BMP280;64700;52.130;21.270;2023-04-08T12:01:15;101336.47;;;20.33
76009;BMP280;64700;52.130;21.270;2023-04-08T12:03:56;101336.91;;;20.32
76009;BMP280;64700;52.130;21.270;2023-04-08T12:06:22;101336.91;;;20.32
76009;BMP280;64700;52.130;21.270;2023-04-08T12:08:48;101341.16;;;20.33
76009;BMP280;64700;52.130;21.270;2023-04-08T12:11:13;101331.47;;;20.32
76009;BMP280;64700;52.130;21.270;2023-04-08T12:13:40;101330.00;;;20.31
76009;BMP280;64700;52.130;21.270;2023-04-08T12:16:05;101326.06;;;20.32
76009;BMP280;64700;52.130;21.270;2023-04-08T12:18:30;101321.84;;;20.31
76009;BMP280;64700;52.130;21.270;2023-04-08T12:20:55;101319.41;;;20.33
76009;BMP280;64700;52.130;21.270;2023-04-08T12:23:21;101323.69;;;20.34
76009;BMP280;64700;52.130;21.270;2023-04-08T12:25:46;101326.41;;;20.34
76009;BMP280;64700;52.130;21.270;2023-04-08T12:28:11;101323.69;;;20.34
76009;BMP280;64700;52.130;21.270;2023-04-08T12:30:37;101322.03;;;20.36
76009;BMP280;64700;52.130;21.270;2023-04-08T12:33:02;101317.06;;;20.35
76009;BMP280;64700;52.130;21.270;2023-04-08T12:35:27;101313.88;;;20.36
76009;BMP280;64700;52.130;21.270;2023-04-08T12:37:52;101316.31;;;20.34
76009;BMP280;64700;52.130;21.270;2023-04-08T12:40:18;101308.16;;;20.34
76009;BMP280;64700;52.130;21.270;2023-04-08T12:42:43;101304.69;;;20.34
76009;BMP280;64700;52.130;21.270;2023-04-08T12:45:08;101298.06;;;20.35
76009;BMP280;64700;52.130;21.270;2023-04-08T12:47:33;101307.72;;;20.36
76009;BMP280;64700;52.130;21.270;2023-04-08T12:49:59;101307.41;;;20.34
76009;BMP280;64700;52.130;21.270;2023-04-08T12:52:24;101313.22;;;20.32
76009;BMP280;64700;52.130;21.270;2023-04-08T12:54:49;101293.81;;;20.34
76009;BMP280;64700;52.130;21.270;2023-04-08T12:57:14;101294.56;;;20.34
76009;BMP280;64700;52.130;21.270;2023-04-08T12:59:40;101293.03;;;20.33
76009;BMP280;64700;52.130;21.270;2023-04-08T13:02:05;101287.59;;;20.33
76009;BMP280;64700;52.130;21.270;2023-04-08T13:04:31;101294.56;;;20.34
76009;BMP280;64700;52.130;21.270;2023-04-08T13:06:56;101288.78;;;20.32
76009;BMP280;64700;52.130;21.270;2023-04-08T13:09:21;101288.38;;;20.34
76009;BMP280;64700;52.130;21.270;2023-04-08T13:11:46;101282.16;;;20.33
76009;BMP280;64700;52.130;21.270;2023-04-08T13:14:12;101286.06;;;20.32
76009;BMP280;64700;52.130;21.270;2023-04-08T13:16:37;101282.16;;;20.33
76009;BMP280;64700;52.130;21.270;2023-04-08T13:19:02;101285.31;;;20.32
76009;BMP280;64700;52.130;21.270;2023-04-08T13:21:28;101284.13;;;20.33
76009;BMP280;64700;52.130;21.270;2023-04-08T13:23:53;101278.69;;;20.33
76009;BMP280;64700;52.130;21.270;2023-04-08T13:26:18;101280.63;;;20.32
76009;BMP280;64700;52.130;21.270;2023-04-08T13:28:43;101273.59;;;20.35
76009;BMP280;64700;52.130;21.270;2023-04-08T13:31:08;101275.19;;;20.32
76009;BMP280;64700;52.130;21.270;2023-04-08T13:33:33;101265.09;;;20.33
76009;BMP280;64700;52.130;21.270;2023-04-08T13:35:59;101271.28;;;20.33
76009;BMP280;64700;52.130;21.270;2023-04-08T13:38:24;101272.50;;;20.32
76009;BMP280;64700;52.130;21.270;2023-04-08T13:40:50;101267.81;;;20.33
76009;BMP280;64700;52.130;21.270;2023-04-08T13:43:15;101273.25;;;20.33
76009;BMP280;64700;52.130;21.270;2023-04-08T13:45:40;101265.56;;;20.31
76009;BMP280;64700;52.130;21.270;2023-04-08T13:48:05;101271.72;;;20.32
76009;BMP280;64700;52.130;21.270;2023-04-08T13:50:31;101271.44;;;20.30
76009;BMP280;64700;52.130;21.270;2023-04-08T13:52:56;101273.38;;;20.29
76009;BMP280;64700;52.130;21.270;2023-04-08T13:55:21;101280.00;;;20.28